sensor_id;sensor_type;location;lat;lon;timestamp;P1;durP1;ratioP1;P2;durP2;ratioP2
60588;SDS011;46421;48.610;9.334;2023-03-23T00:02:29;2.92;;;1.17;;
60588;SDS011;46421;48.610;9.334;2023-03-23T00:04:57;3.28;;;1.38;;
60588;SDS011;46421;48.610;9.334;2023-03-23T00:07:25;3.95;;;1.38;;
60588;SDS011;46421;48.610;9.334;2023-03-23T00:09:52;4.05;;;1.40;;
60588;SDS011;46421;48.610;9.334;2023-03-23T00:12:23;3.38;;;1.63;;
60588;SDS011;46421;48.610;9.334;2023-03-23T00:14:59;3.45;;;1.20;;
60588;SDS011;46421;48.610;9.334;2023-03-23T00:17:26;3.97;;;1.27;;
60588;SDS011;46421;48.610;9.334;2023-03-23T00:19:52;4.75;;;1.33;;
60588;SDS011;46421;48.610;9.334;2023-03-23T00:22:18;3.65;;;1.35;;
60588;SDS011;46421;48.610;9.334;2023-03-23T00:24:46;2.63;;;1.10;;
60588;SDS011;46421;48.610;9.334;2023-03-23T00:27:12;3.33;;;1.40;;
60588;SDS011;46421;48.610;9.334;2023-03-23T00:29:39;4.43;;;1.42;;
60588;SDS011;46421;48.610;9.334;2023-03-23T00:32:06;3.42;;;1.20;;
60588;SDS011;46421;48.610;9.334;2023-03-23T00:34:31;3.78;;;1.30;;
60588;SDS011;46421;48.610;9.334;2023-03-23T00:36:58;3.05;;;0.95;;
60588;SDS011;46421;48.610;9.334;2023-03-23T00:39:25;6.07;;;1.30;;
60588;SDS011;46421;48.610;9.334;2023-03-23T00:41:52;2.08;;;1.20;;
60588;SDS011;46421;48.610;9.334;2023-03-23T00:44:19;3.70;;;1.45;;
60588;SDS011;46421;48.610;9.334;2023-03-23T00:46:48;3.15;;;1.20;;
60588;SDS011;46421;48.610;9.334;2023-03-23T00:49:18;3.15;;;1.10;;
60588;SDS011;46421;48.610;9.334;2023-03-23T00:51:45;2.15;;;1.00;;
60588;SDS011;46421;48.610;9.334;2023-03-23T00:54:11;3.90;;;1.23;;
60588;SDS011;46421;48.610;9.334;2023-03-23T00:56:37;3.58;;;1.30;;
60588;SDS011;46421;48.610;9.334;2023-03-23T00:59:04;6.45;;;1.40;;
60588;SDS011;46421;48.610;9.334;2023-03-23T01:01:30;3.75;;;1.48;;
60588;SDS011;46421;48.610;9.334;2023-03-23T01:03:57;4.15;;;1.23;;
60588;SDS011;46421;48.610;9.334;2023-03-23T01:06:26;3.30;;;1.17;;
60588;SDS011;46421;48.610;9.334;2023-03-23T01:08:53;2.90;;;1.30;;
60588;SDS011;46421;48.610;9.334;2023-03-23T01:11:19;2.97;;;1.10;;
60588;SDS011;46421;48.610;9.334;2023-03-23T01:13:45;2.88;;;1.10;;
60588;SDS011;46421;48.610;9.334;2023-03-23T01:16:11;2.75;;;0.90;;
60588;SDS011;46421;48.610;9.334;2023-03-23T01:18:37;3.67;;;1.23;;
60588;SDS011;46421;48.610;9.334;2023-03-23T01:21:03;3.40;;;0.93;;
60588;SDS011;46421;48.610;9.334;2023-03-23T01:23:34;3.60;;;1.30;;
60588;SDS011;46421;48.610;9.334;2023-03-23T01:26:12;3.97;;;1.00;;
60588;SDS011;46421;48.610;9.334;2023-03-23T01:28:42;2.75;;;1.13;;
60588;SDS011;46421;48.610;9.334;2023-03-23T01:31:09;3.38;;;1.35;;
60588;SDS011;46421;48.610;9.334;2023-03-23T01:33:37;4.63;;;1.42;;
60588;SDS011;46421;48.610;9.334;2023-03-23T01:36:04;3.67;;;1.08;;
60588;SDS011;46421;48.610;9.334;2023-03-23T01:38:31;2.65;;;1.05;;
60588;SDS011;46421;48.610;9.334;2023-03-23T01:40:57;2.95;;;1.20;;
60588;SDS011;46421;48.610;9.334;2023-03-23T01:43:23;1.92;;;0.85;;
60588;SDS011;46421;48.610;9.334;2023-03-23T01:45:48;3.05;;;1.10;;
60588;SDS011;46421;48.610;9.334;2023-03-23T01:48:16;5.15;;;1.02;;
60588;SDS011;46421;48.610;9.334;2023-03-23T01:53:20;3.40;;;1.25;;
60588;SDS011;46421;48.610;9.334;2023-03-23T01:55:47;3.45;;;1.02;;
60588;SDS011;46421;48.610;9.334;2023-03-23T01:58:17;3.72;;;1.00;;
60588;SDS011;46421;48.610;9.334;2023-03-23T02:00:46;5.38;;;1.60;;
60588;SDS011;46421;48.610;9.334;2023-03-23T02:03:12;2.97;;;1.15;;
60588;SDS011;46421;48.610;9.334;2023-03-23T02:05:41;7.47;;;1.40;;
60588;SDS011;46421;48.610;9.334;2023-03-23T02:08:07;2.25;;;1.02;;
60588;SDS011;46421;48.610;9.334;2023-03-23T02:10:35;3.10;;;1.15;;
60588;SDS011;46421;48.610;9.334;2023-03-23T02:13:03;2.85;;;1.17;;
60588;SDS011;46421;48.610;9.334;2023-03-23T02:15:45;2.83;;;1.10;;
60588;SDS011;46421;48.610;9.334;2023-03-23T02:21:29;4.25;;;1.38;;
60588;SDS011;46421;48.610;9.334;2023-03-23T02:27:01;2.55;;;1.05;;
60588;SDS011;46421;48.610;9.334;2023-03-23T02:32:39;3.83;;;1.27;;
60588;SDS011;46421;48.610;9.334;2023-03-23T02:35:08;3.00;;;1.45;;
60588;SDS011;46421;48.610;9.334;2023-03-23T02:37:57;4.18;;;1.20;;
60588;SDS011;46421;48.610;9.334;2023-03-23T02:40:30;3.83;;;1.40;;
60588;SDS011;46421;48.610;9.334;2023-03-23T02:43:01;4.03;;;1.40;;
60588;SDS011;46421;48.610;9.334;2023-03-23T02:45:28;3.60;;;1.20;;
60588;SDS011;46421;48.610;9.334;2023-03-23T02:47:57;4.93;;;1.55;;
60588;SDS011;46421;48.610;9.334;2023-03-23T02:50:27;3.70;;;1.40;;
60588;SDS011;46421;48.610;9.334;2023-03-23T02:52:54;4.18;;;1.52;;
60588;SDS011;46421;48.610;9.334;2023-03-23T02:55:23;4.45;;;1.70;;
60588;SDS011;46421;48.610;9.334;2023-03-23T02:57:54;4.22;;;1.63;;
60588;SDS011;46421;48.610;9.334;2023-03-23T03:00:20;3.85;;;1.70;;
60588;SDS011;46421;48.610;9.334;2023-03-23T03:02:46;3.83;;;1.45;;
60588;SDS011;46421;48.610;9.334;2023-03-23T03:05:23;4.30;;;1.50;;
60588;SDS011;46421;48.610;9.334;2023-03-23T03:08:15;4.65;;;1.75;;
60588;SDS011;46421;48.610;9.334;2023-03-23T03:10:59;3.22;;;1.30;;
60588;SDS011;46421;48.610;9.334;2023-03-23T03:19:03;4.47;;;1.50;;
60588;SDS011;46421;48.610;9.334;2023-03-23T03:21:35;4.22;;;1.38;;
60588;SDS011;46421;48.610;9.334;2023-03-23T03:24:03;4.57;;;1.60;;
60588;SDS011;46421;48.610;9.334;2023-03-23T03:26:31;3.70;;;1.25;;
60588;SDS011;46421;48.610;9.334;2023-03-23T03:28:59;4.00;;;1.52;;
60588;SDS011;46421;48.610;9.334;2023-03-23T03:31:28;7.30;;;1.95;;
60588;SDS011;46421;48.610;9.334;2023-03-23T03:33:55;4.63;;;1.58;;
60588;SDS011;46421;48.610;9.334;2023-03-23T03:36:26;5.03;;;1.70;;
60588;SDS011;46421;48.610;9.334;2023-03-23T03:38:59;5.13;;;1.67;;
60588;SDS011;46421;48.610;9.334;2023-03-23T03:41:28;4.18;;;1.48;;
60588;SDS011;46421;48.610;9.334;2023-03-23T03:43:54;2.65;;;1.15;;
60588;SDS011;46421;48.610;9.334;2023-03-23T03:46:19;4.17;;;1.90;;
60588;SDS011;46421;48.610;9.334;2023-03-23T03:48:44;3.85;;;1.50;;
60588;SDS011;46421;48.610;9.334;2023-03-23T03:51:10;4.43;;;1.60;;
60588;SDS011;46421;48.610;9.334;2023-03-23T03:53:35;5.30;;;1.58;;
60588;SDS011;46421;48.610;9.334;2023-03-23T03:56:01;4.47;;;1.60;;
60588;SDS011;46421;48.610;9.334;2023-03-23T03:58:26;2.75;;;1.35;;
60588;SDS011;46421;48.610;9.334;2023-03-23T04:00:59;3.95;;;1.33;;
60588;SDS011;46421;48.610;9.334;2023-03-23T04:03:25;5.20;;;2.10;;
60588;SDS011;46421;48.610;9.334;2023-03-23T04:05:52;6.53;;;1.73;;
60588;SDS011;46421;48.610;9.334;2023-03-23T04:08:21;4.55;;;1.50;;
60588;SDS011;46421;48.610;9.334;2023-03-23T04:10:47;6.50;;;1.85;;
60588;SDS011;46421;48.610;9.334;2023-03-23T04:13:13;4.28;;;1.63;;
60588;SDS011;46421;48.610;9.334;2023-03-23T04:15:39;5.38;;;1.80;;
60588;SDS011;46421;48.610;9.334;2023-03-23T04:18:04;8.35;;;1.70;;
60588;SDS011;46421;48.610;9.334;2023-03-23T04:20:30;6.57;;;1.83;;
60588;SDS011;46421;48.610;9.334;2023-03-23T04:22:56;5.53;;;1.80;;
60588;SDS011;46421;48.610;9.334;2023-03-23T04:25:22;4.32;;;1.30;;
60588;SDS011;46421;48.610;9.334;2023-03-23T04:27:51;5.70;;;1.90;;
60588;SDS011;46421;48.610;9.334;2023-03-23T04:30:20;4.22;;;1.48;;
60588;SDS011;46421;48.610;9.334;2023-03-23T04:32:48;4.78;;;1.40;;
60588;SDS011;46421;48.610;9.334;2023-03-23T04:35:20;5.20;;;1.73;;
60588;SDS011;46421;48.610;9.334;2023-03-23T04:37:47;4.53;;;1.90;;
60588;SDS011;46421;48.610;9.334;2023-03-23T04:40:13;3.50;;;1.30;;
60588;SDS011;46421;48.610;9.334;2023-03-23T04:42:42;4.15;;;1.60;;
60588;SDS011;46421;48.610;9.334;2023-03-23T04:45:16;5.35;;;1.55;;
60588;SDS011;46421;48.610;9.334;2023-03-23T04:47:47;4.70;;;1.52;;
60588;SDS011;46421;48.610;9.334;2023-03-23T04:50:18;3.42;;;1.45;;
60588;SDS011;46421;48.610;9.334;2023-03-23T04:52:46;3.65;;;1.63;;
60588;SDS011;46421;48.610;9.334;2023-03-23T04:55:12;3.53;;;1.40;;
60588;SDS011;46421;48.610;9.334;2023-03-23T04:57:38;5.78;;;1.70;;
60588;SDS011;46421;48.610;9.334;2023-03-23T05:00:04;4.15;;;1.60;;
60588;SDS011;46421;48.610;9.334;2023-03-23T05:02:35;4.35;;;1.55;;
60588;SDS011;46421;48.610;9.334;2023-03-23T05:05:01;4.03;;;1.58;;
60588;SDS011;46421;48.610;9.334;2023-03-23T05:07:26;4.80;;;1.77;;
60588;SDS011;46421;48.610;9.334;2023-03-23T05:09:51;3.13;;;1.42;;
60588;SDS011;46421;48.610;9.334;2023-03-23T05:12:17;4.63;;;1.52;;
60588;SDS011;46421;48.610;9.334;2023-03-23T05:14:42;4.13;;;1.52;;
60588;SDS011;46421;48.610;9.334;2023-03-23T05:17:08;3.75;;;1.50;;
60588;SDS011;46421;48.610;9.334;2023-03-23T05:19:34;5.47;;;1.60;;
60588;SDS011;46421;48.610;9.334;2023-03-23T05:24:31;4.22;;;1.30;;
60588;SDS011;46421;48.610;9.334;2023-03-23T05:27:00;8.40;;;1.70;;
60588;SDS011;46421;48.610;9.334;2023-03-23T05:29:28;3.15;;;1.13;;
60588;SDS011;46421;48.610;9.334;2023-03-23T05:36:46;4.63;;;1.60;;
60588;SDS011;46421;48.610;9.334;2023-03-23T05:39:12;5.20;;;1.70;;
60588;SDS011;46421;48.610;9.334;2023-03-23T05:41:38;5.25;;;1.70;;
60588;SDS011;46421;48.610;9.334;2023-03-23T05:44:04;5.25;;;1.65;;
60588;SDS011;46421;48.610;9.334;2023-03-23T05:46:29;4.97;;;1.38;;
60588;SDS011;46421;48.610;9.334;2023-03-23T05:48:55;4.32;;;1.65;;
60588;SDS011;46421;48.610;9.334;2023-03-23T05:51:20;4.00;;;1.48;;
60588;SDS011;46421;48.610;9.334;2023-03-23T05:53:46;4.93;;;1.30;;
60588;SDS011;46421;48.610;9.334;2023-03-23T05:56:12;4.78;;;1.70;;
60588;SDS011;46421;48.610;9.334;2023-03-23T05:58:38;3.38;;;1.48;;
60588;SDS011;46421;48.610;9.334;2023-03-23T06:01:06;4.15;;;1.63;;
60588;SDS011;46421;48.610;9.334;2023-03-23T06:03:33;5.03;;;1.65;;
60588;SDS011;46421;48.610;9.334;2023-03-23T06:06:01;4.50;;;1.55;;
60588;SDS011;46421;48.610;9.334;2023-03-23T06:08:27;4.45;;;1.27;;
60588;SDS011;46421;48.610;9.334;2023-03-23T06:10:52;3.83;;;1.38;;
60588;SDS011;46421;48.610;9.334;2023-03-23T06:13:17;4.07;;;1.48;;
60588;SDS011;46421;48.610;9.334;2023-03-23T06:15:43;4.05;;;1.38;;
60588;SDS011;46421;48.610;9.334;2023-03-23T06:18:08;5.10;;;1.50;;
60588;SDS011;46421;48.610;9.334;2023-03-23T06:20:34;4.53;;;1.58;;
60588;SDS011;46421;48.610;9.334;2023-03-23T06:23:00;4.47;;;1.40;;
60588;SDS011;46421;48.610;9.334;2023-03-23T06:25:26;4.15;;;1.52;;
60588;SDS011;46421;48.610;9.334;2023-03-23T06:27:52;3.33;;;1.38;;
60588;SDS011;46421;48.610;9.334;2023-03-23T06:30:18;3.65;;;1.40;;
60588;SDS011;46421;48.610;9.334;2023-03-23T06:32:43;3.80;;;1.30;;
60588;SDS011;46421;48.610;9.334;2023-03-23T06:35:11;3.53;;;1.40;;
60588;SDS011;46421;48.610;9.334;2023-03-23T06:37:37;5.80;;;1.50;;
60588;SDS011;46421;48.610;9.334;2023-03-23T06:40:03;6.72;;;1.42;;
60588;SDS011;46421;48.610;9.334;2023-03-23T06:42:31;3.63;;;1.55;;
60588;SDS011;46421;48.610;9.334;2023-03-23T06:44:57;3.22;;;1.30;;
60588;SDS011;46421;48.610;9.334;2023-03-23T06:47:31;3.13;;;1.45;;
60588;SDS011;46421;48.610;9.334;2023-03-23T06:49:57;4.15;;;1.20;;
60588;SDS011;46421;48.610;9.334;2023-03-23T06:52:23;3.22;;;1.33;;
60588;SDS011;46421;48.610;9.334;2023-03-23T06:54:50;3.67;;;1.40;;
60588;SDS011;46421;48.610;9.334;2023-03-23T06:57:15;4.43;;;1.40;;
60588;SDS011;46421;48.610;9.334;2023-03-23T06:59:41;2.83;;;1.13;;
60588;SDS011;46421;48.610;9.334;2023-03-23T07:02:08;3.25;;;1.00;;
60588;SDS011;46421;48.610;9.334;2023-03-23T07:04:36;2.72;;;1.10;;
60588;SDS011;46421;48.610;9.334;2023-03-23T07:07:02;3.88;;;0.90;;
60588;SDS011;46421;48.610;9.334;2023-03-23T07:09:28;2.58;;;1.00;;
60588;SDS011;46421;48.610;9.334;2023-03-23T07:11:53;3.42;;;1.00;;
60588;SDS011;46421;48.610;9.334;2023-03-23T07:14:19;4.57;;;1.05;;
60588;SDS011;46421;48.610;9.334;2023-03-23T07:16:44;2.60;;;1.20;;
60588;SDS011;46421;48.610;9.334;2023-03-23T07:19:10;3.22;;;1.30;;
60588;SDS011;46421;48.610;9.334;2023-03-23T07:21:35;3.90;;;1.00;;
60588;SDS011;46421;48.610;9.334;2023-03-23T07:24:01;2.10;;;0.80;;
60588;SDS011;46421;48.610;9.334;2023-03-23T07:26:27;2.67;;;1.10;;
60588;SDS011;46421;48.610;9.334;2023-03-23T07:28:52;4.28;;;1.00;;
60588;SDS011;46421;48.610;9.334;2023-03-23T07:31:18;3.60;;;1.10;;
60588;SDS011;46421;48.610;9.334;2023-03-23T07:33:43;3.90;;;1.30;;
60588;SDS011;46421;48.610;9.334;2023-03-23T07:36:08;3.72;;;1.30;;
60588;SDS011;46421;48.610;9.334;2023-03-23T07:38:34;2.90;;;1.10;;
60588;SDS011;46421;48.610;9.334;2023-03-23T07:41:00;2.50;;;1.00;;
60588;SDS011;46421;48.610;9.334;2023-03-23T07:43:26;2.70;;;1.05;;
60588;SDS011;46421;48.610;9.334;2023-03-23T07:45:52;2.67;;;1.05;;
60588;SDS011;46421;48.610;9.334;2023-03-23T07:48:17;2.85;;;1.20;;
60588;SDS011;46421;48.610;9.334;2023-03-23T07:50:43;2.03;;;0.90;;
60588;SDS011;46421;48.610;9.334;2023-03-23T07:53:08;2.33;;;0.93;;
60588;SDS011;46421;48.610;9.334;2023-03-23T07:55:34;3.47;;;1.57;;
60588;SDS011;46421;48.610;9.334;2023-03-23T07:57:59;1.70;;;0.80;;
60588;SDS011;46421;48.610;9.334;2023-03-23T08:00:25;3.10;;;1.13;;
60588;SDS011;46421;48.610;9.334;2023-03-23T08:02:52;4.75;;;1.70;;
60588;SDS011;46421;48.610;9.334;2023-03-23T08:05:21;4.53;;;1.35;;
60588;SDS011;46421;48.610;9.334;2023-03-23T08:07:47;4.65;;;1.00;;
60588;SDS011;46421;48.610;9.334;2023-03-23T08:10:13;3.30;;;1.33;;
60588;SDS011;46421;48.610;9.334;2023-03-23T08:12:41;2.25;;;1.00;;
60588;SDS011;46421;48.610;9.334;2023-03-23T08:15:07;3.17;;;0.85;;
60588;SDS011;46421;48.610;9.334;2023-03-23T08:17:37;5.15;;;1.17;;
60588;SDS011;46421;48.610;9.334;2023-03-23T08:20:05;4.50;;;1.20;;
60588;SDS011;46421;48.610;9.334;2023-03-23T08:22:35;2.75;;;1.10;;
60588;SDS011;46421;48.610;9.334;2023-03-23T08:25:02;3.67;;;1.25;;
60588;SDS011;46421;48.610;9.334;2023-03-23T08:27:28;2.90;;;1.02;;
60588;SDS011;46421;48.610;9.334;2023-03-23T08:29:54;2.35;;;1.00;;
60588;SDS011;46421;48.610;9.334;2023-03-23T08:32:19;3.37;;;1.30;;
60588;SDS011;46421;48.610;9.334;2023-03-23T08:34:45;3.35;;;1.10;;
60588;SDS011;46421;48.610;9.334;2023-03-23T08:37:10;3.65;;;1.02;;
60588;SDS011;46421;48.610;9.334;2023-03-23T08:39:36;3.90;;;0.98;;
60588;SDS011;46421;48.610;9.334;2023-03-23T08:42:02;3.88;;;1.17;;
60588;SDS011;46421;48.610;9.334;2023-03-23T08:44:28;2.25;;;1.00;;
60588;SDS011;46421;48.610;9.334;2023-03-23T08:46:54;4.03;;;1.23;;
60588;SDS011;46421;48.610;9.334;2023-03-23T08:49:22;2.50;;;0.90;;
60588;SDS011;46421;48.610;9.334;2023-03-23T08:51:48;2.30;;;0.77;;
60588;SDS011;46421;48.610;9.334;2023-03-23T08:54:13;4.60;;;0.93;;
60588;SDS011;46421;48.610;9.334;2023-03-23T08:56:39;2.05;;;0.80;;
60588;SDS011;46421;48.610;9.334;2023-03-23T08:59:04;2.13;;;0.90;;
60588;SDS011;46421;48.610;9.334;2023-03-23T09:01:30;2.88;;;1.00;;
60588;SDS011;46421;48.610;9.334;2023-03-23T09:03:55;2.83;;;1.05;;
60588;SDS011;46421;48.610;9.334;2023-03-23T09:06:21;2.75;;;0.90;;
60588;SDS011;46421;48.610;9.334;2023-03-23T09:08:46;3.30;;;1.00;;
60588;SDS011;46421;48.610;9.334;2023-03-23T09:11:11;3.20;;;1.10;;
60588;SDS011;46421;48.610;9.334;2023-03-23T09:13:37;2.97;;;0.85;;
60588;SDS011;46421;48.610;9.334;2023-03-23T09:16:04;4.78;;;1.23;;
60588;SDS011;46421;48.610;9.334;2023-03-23T09:18:30;2.08;;;0.85;;
60588;SDS011;46421;48.610;9.334;2023-03-23T09:20:57;2.50;;;0.95;;
60588;SDS011;46421;48.610;9.334;2023-03-23T09:23:23;3.25;;;0.90;;
60588;SDS011;46421;48.610;9.334;2023-03-23T09:25:49;2.15;;;1.05;;
60588;SDS011;46421;48.610;9.334;2023-03-23T09:28:16;2.67;;;0.90;;
60588;SDS011;46421;48.610;9.334;2023-03-23T09:30:41;2.67;;;1.05;;
60588;SDS011;46421;48.610;9.334;2023-03-23T09:33:09;1.73;;;0.77;;
60588;SDS011;46421;48.610;9.334;2023-03-23T09:35:35;2.67;;;1.00;;
60588;SDS011;46421;48.610;9.334;2023-03-23T09:38:03;2.90;;;1.00;;
60588;SDS011;46421;48.610;9.334;2023-03-23T09:46:18;2.85;;;1.10;;
60588;SDS011;46421;48.610;9.334;2023-03-23T09:49:07;2.50;;;0.90;;
60588;SDS011;46421;48.610;9.334;2023-03-23T09:51:44;4.18;;;0.98;;
60588;SDS011;46421;48.610;9.334;2023-03-23T09:54:21;3.03;;;0.90;;
60588;SDS011;46421;48.610;9.334;2023-03-23T09:56:47;2.33;;;1.00;;
60588;SDS011;46421;48.610;9.334;2023-03-23T10:01:56;2.15;;;0.75;;
60588;SDS011;46421;48.610;9.334;2023-03-23T10:04:36;2.25;;;0.80;;
60588;SDS011;46421;48.610;9.334;2023-03-23T10:07:09;2.40;;;1.00;;
60588;SDS011;46421;48.610;9.334;2023-03-23T10:09:38;3.08;;;0.80;;
60588;SDS011;46421;48.610;9.334;2023-03-23T10:12:09;2.97;;;1.20;;
60588;SDS011;46421;48.610;9.334;2023-03-23T10:22:57;3.25;;;0.90;;
60588;SDS011;46421;48.610;9.334;2023-03-23T10:25:31;2.08;;;0.75;;
60588;SDS011;46421;48.610;9.334;2023-03-23T10:28:10;3.40;;;1.20;;
60588;SDS011;46421;48.610;9.334;2023-03-23T10:30:45;2.80;;;0.90;;
60588;SDS011;46421;48.610;9.334;2023-03-23T10:36:06;2.78;;;0.80;;
60588;SDS011;46421;48.610;9.334;2023-03-23T10:38:37;2.65;;;0.77;;
60588;SDS011;46421;48.610;9.334;2023-03-23T10:41:14;1.83;;;0.75;;
60588;SDS011;46421;48.610;9.334;2023-03-23T10:43:43;1.83;;;0.90;;
60588;SDS011;46421;48.610;9.334;2023-03-23T10:46:26;3.08;;;0.88;;
60588;SDS011;46421;48.610;9.334;2023-03-23T10:49:08;2.58;;;1.05;;
60588;SDS011;46421;48.610;9.334;2023-03-23T10:51:37;2.33;;;0.80;;
60588;SDS011;46421;48.610;9.334;2023-03-23T10:54:07;2.38;;;1.10;;
60588;SDS011;46421;48.610;9.334;2023-03-23T10:56:37;1.60;;;0.90;;
60588;SDS011;46421;48.610;9.334;2023-03-23T10:59:11;3.80;;;0.98;;
60588;SDS011;46421;48.610;9.334;2023-03-23T11:01:45;2.53;;;1.05;;
60588;SDS011;46421;48.610;9.334;2023-03-23T11:04:15;1.48;;;0.80;;
60588;SDS011;46421;48.610;9.334;2023-03-23T11:06:45;2.22;;;0.93;;
60588;SDS011;46421;48.610;9.334;2023-03-23T11:09:17;2.33;;;1.00;;
60588;SDS011;46421;48.610;9.334;2023-03-23T11:11:48;2.58;;;1.23;;
60588;SDS011;46421;48.610;9.334;2023-03-23T11:14:17;3.05;;;0.98;;
60588;SDS011;46421;48.610;9.334;2023-03-23T11:16:56;3.20;;;0.85;;
60588;SDS011;46421;48.610;9.334;2023-03-23T11:21:53;3.85;;;1.10;;
60588;SDS011;46421;48.610;9.334;2023-03-23T11:24:32;4.30;;;0.93;;
60588;SDS011;46421;48.610;9.334;2023-03-23T11:27:00;1.65;;;0.80;;
60588;SDS011;46421;48.610;9.334;2023-03-23T11:29:28;1.98;;;0.98;;
60588;SDS011;46421;48.610;9.334;2023-03-23T11:34:31;2.47;;;1.00;;
60588;SDS011;46421;48.610;9.334;2023-03-23T11:37:01;3.25;;;1.20;;
60588;SDS011;46421;48.610;9.334;2023-03-23T11:39:31;2.58;;;1.02;;
60588;SDS011;46421;48.610;9.334;2023-03-23T11:42:00;4.03;;;0.90;;
60588;SDS011;46421;48.610;9.334;2023-03-23T11:44:34;2.03;;;1.00;;
60588;SDS011;46421;48.610;9.334;2023-03-23T11:50:16;2.03;;;0.68;;
60588;SDS011;46421;48.610;9.334;2023-03-23T11:52:54;3.80;;;1.10;;
60588;SDS011;46421;48.610;9.334;2023-03-23T11:55:49;3.60;;;1.00;;
60588;SDS011;46421;48.610;9.334;2023-03-23T11:58:20;2.88;;;0.90;;
60588;SDS011;46421;48.610;9.334;2023-03-23T12:00:57;2.78;;;0.90;;
60588;SDS011;46421;48.610;9.334;2023-03-23T12:09:28;4.28;;;1.20;;
60588;SDS011;46421;48.610;9.334;2023-03-23T12:12:11;1.95;;;0.88;;
60588;SDS011;46421;48.610;9.334;2023-03-23T12:14:48;2.70;;;1.00;;
60588;SDS011;46421;48.610;9.334;2023-03-23T12:20:35;3.05;;;1.00;;
60588;SDS011;46421;48.610;9.334;2023-03-23T12:23:21;2.63;;;0.88;;
60588;SDS011;46421;48.610;9.334;2023-03-23T12:31:32;1.80;;;0.77;;
60588;SDS011;46421;48.610;9.334;2023-03-23T12:39:47;3.53;;;1.33;;
60588;SDS011;46421;48.610;9.334;2023-03-23T12:42:24;3.03;;;1.15;;
60588;SDS011;46421;48.610;9.334;2023-03-23T12:47:58;2.95;;;1.00;;
60588;SDS011;46421;48.610;9.334;2023-03-23T12:50:38;3.33;;;1.00;;
60588;SDS011;46421;48.610;9.334;2023-03-23T12:53:11;2.30;;;0.82;;
60588;SDS011;46421;48.610;9.334;2023-03-23T12:55:49;3.13;;;0.90;;
60588;SDS011;46421;48.610;9.334;2023-03-23T12:58:30;3.40;;;1.15;;
60588;SDS011;46421;48.610;9.334;2023-03-23T13:01:02;2.33;;;1.20;;
60588;SDS011;46421;48.610;9.334;2023-03-23T13:03:54;2.53;;;1.10;;
60588;SDS011;46421;48.610;9.334;2023-03-23T13:09:05;2.85;;;1.10;;
60588;SDS011;46421;48.610;9.334;2023-03-23T13:11:37;4.55;;;1.35;;
60588;SDS011;46421;48.610;9.334;2023-03-23T13:16:51;3.15;;;1.02;;
60588;SDS011;46421;48.610;9.334;2023-03-23T13:22:27;3.60;;;1.00;;
60588;SDS011;46421;48.610;9.334;2023-03-23T13:24:56;3.50;;;1.10;;
60588;SDS011;46421;48.610;9.334;2023-03-23T13:27:26;2.38;;;0.82;;
60588;SDS011;46421;48.610;9.334;2023-03-23T13:29:53;2.05;;;0.90;;
60588;SDS011;46421;48.610;9.334;2023-03-23T13:32:20;3.72;;;0.95;;
60588;SDS011;46421;48.610;9.334;2023-03-23T13:34:46;1.77;;;0.88;;
60588;SDS011;46421;48.610;9.334;2023-03-23T13:40:25;3.55;;;1.05;;
60588;SDS011;46421;48.610;9.334;2023-03-23T13:42:49;2.72;;;1.10;;
60588;SDS011;46421;48.610;9.334;2023-03-23T13:50:44;2.80;;;0.90;;
60588;SDS011;46421;48.610;9.334;2023-03-23T13:55:51;3.45;;;1.20;;
60588;SDS011;46421;48.610;9.334;2023-03-23T13:58:28;4.18;;;1.15;;
60588;SDS011;46421;48.610;9.334;2023-03-23T14:03:39;2.92;;;1.00;;
60588;SDS011;46421;48.610;9.334;2023-03-23T14:06:13;2.75;;;1.02;;
60588;SDS011;46421;48.610;9.334;2023-03-23T14:08:41;2.42;;;1.00;;
60588;SDS011;46421;48.610;9.334;2023-03-23T14:11:16;1.65;;;0.80;;
60588;SDS011;46421;48.610;9.334;2023-03-23T14:16:42;2.28;;;1.00;;
60588;SDS011;46421;48.610;9.334;2023-03-23T14:19:28;3.13;;;1.13;;
60588;SDS011;46421;48.610;9.334;2023-03-23T14:21:55;3.13;;;1.10;;
60588;SDS011;46421;48.610;9.334;2023-03-23T14:24:28;3.28;;;1.08;;
60588;SDS011;46421;48.610;9.334;2023-03-23T14:27:08;3.35;;;1.00;;
60588;SDS011;46421;48.610;9.334;2023-03-23T14:29:36;3.15;;;1.10;;
60588;SDS011;46421;48.610;9.334;2023-03-23T14:32:01;3.38;;;1.00;;
60588;SDS011;46421;48.610;9.334;2023-03-23T14:34:31;1.80;;;0.90;;
60588;SDS011;46421;48.610;9.334;2023-03-23T14:36:58;3.92;;;1.10;;
60588;SDS011;46421;48.610;9.334;2023-03-23T14:39:33;2.70;;;0.98;;
60588;SDS011;46421;48.610;9.334;2023-03-23T14:42:12;2.30;;;1.05;;
60588;SDS011;46421;48.610;9.334;2023-03-23T14:44:41;3.08;;;0.98;;
60588;SDS011;46421;48.610;9.334;2023-03-23T14:47:20;3.13;;;1.20;;
60588;SDS011;46421;48.610;9.334;2023-03-23T14:49:56;3.47;;;1.30;;
60588;SDS011;46421;48.610;9.334;2023-03-23T14:52:27;2.92;;;1.23;;
60588;SDS011;46421;48.610;9.334;2023-03-23T14:55:06;2.33;;;1.00;;
60588;SDS011;46421;48.610;9.334;2023-03-23T14:57:39;3.15;;;1.13;;
60588;SDS011;46421;48.610;9.334;2023-03-23T15:00:11;4.88;;;1.23;;
60588;SDS011;46421;48.610;9.334;2023-03-23T15:02:40;2.78;;;0.98;;
60588;SDS011;46421;48.610;9.334;2023-03-23T15:05:10;2.70;;;1.10;;
60588;SDS011;46421;48.610;9.334;2023-03-23T15:07:40;3.70;;;1.17;;
60588;SDS011;46421;48.610;9.334;2023-03-23T15:10:15;3.10;;;1.13;;
60588;SDS011;46421;48.610;9.334;2023-03-23T15:15:21;2.47;;;1.00;;
60588;SDS011;46421;48.610;9.334;2023-03-23T15:17:46;3.83;;;1.30;;
60588;SDS011;46421;48.610;9.334;2023-03-23T15:22:54;2.65;;;1.10;;
60588;SDS011;46421;48.610;9.334;2023-03-23T15:25:22;2.70;;;1.02;;
60588;SDS011;46421;48.610;9.334;2023-03-23T15:32:53;2.75;;;1.00;;
60588;SDS011;46421;48.610;9.334;2023-03-23T15:35:24;3.83;;;1.30;;
60588;SDS011;46421;48.610;9.334;2023-03-23T15:37:52;2.58;;;1.08;;
60588;SDS011;46421;48.610;9.334;2023-03-23T15:40:24;2.90;;;1.10;;
60588;SDS011;46421;48.610;9.334;2023-03-23T15:45:31;2.38;;;1.20;;
60588;SDS011;46421;48.610;9.334;2023-03-23T15:47:57;3.47;;;1.13;;
60588;SDS011;46421;48.610;9.334;2023-03-23T15:50:35;3.30;;;1.25;;
60588;SDS011;46421;48.610;9.334;2023-03-23T15:53:00;4.05;;;1.30;;
60588;SDS011;46421;48.610;9.334;2023-03-23T15:55:40;4.07;;;1.35;;
60588;SDS011;46421;48.610;9.334;2023-03-23T15:58:12;3.15;;;1.27;;
60588;SDS011;46421;48.610;9.334;2023-03-23T16:00:39;2.20;;;0.98;;
60588;SDS011;46421;48.610;9.334;2023-03-23T16:05:32;3.88;;;1.00;;
60588;SDS011;46421;48.610;9.334;2023-03-23T16:07:58;2.72;;;1.10;;
60588;SDS011;46421;48.610;9.334;2023-03-23T16:10:24;3.25;;;1.38;;
60588;SDS011;46421;48.610;9.334;2023-03-23T16:12:50;3.33;;;1.25;;
60588;SDS011;46421;48.610;9.334;2023-03-23T16:15:16;3.38;;;1.13;;
60588;SDS011;46421;48.610;9.334;2023-03-23T16:17:42;3.95;;;1.20;;
60588;SDS011;46421;48.610;9.334;2023-03-23T16:20:17;4.55;;;1.30;;
60588;SDS011;46421;48.610;9.334;2023-03-23T16:22:45;3.95;;;1.30;;
60588;SDS011;46421;48.610;9.334;2023-03-23T16:25:12;3.45;;;1.10;;
60588;SDS011;46421;48.610;9.334;2023-03-23T16:27:38;4.32;;;1.33;;
60588;SDS011;46421;48.610;9.334;2023-03-23T16:30:10;3.03;;;0.90;;
60588;SDS011;46421;48.610;9.334;2023-03-23T16:32:37;3.00;;;1.25;;
60588;SDS011;46421;48.610;9.334;2023-03-23T16:35:02;7.20;;;2.17;;
60588;SDS011;46421;48.610;9.334;2023-03-23T16:37:28;3.42;;;1.27;;
60588;SDS011;46421;48.610;9.334;2023-03-23T16:39:57;4.13;;;1.33;;
60588;SDS011;46421;48.610;9.334;2023-03-23T16:42:23;3.17;;;1.15;;
60588;SDS011;46421;48.610;9.334;2023-03-23T16:44:49;4.15;;;1.58;;
60588;SDS011;46421;48.610;9.334;2023-03-23T16:47:15;2.65;;;1.00;;
60588;SDS011;46421;48.610;9.334;2023-03-23T16:49:42;4.78;;;1.30;;
60588;SDS011;46421;48.610;9.334;2023-03-23T16:52:08;4.30;;;1.00;;
60588;SDS011;46421;48.610;9.334;2023-03-23T16:54:34;2.30;;;1.10;;
60588;SDS011;46421;48.610;9.334;2023-03-23T16:57:00;3.15;;;1.10;;